ADDS METAR Data INFO
IDs: Format: Raw Decoded Include TAF

Data at: 1849 UTC 17 Oct 2017

KAPN 171754Z AUTO 23009KT 10SM CLR 19/08 A2999 RMK AO2 SLP156 T01940083 10194 20078 58006
KAPN 171654Z AUTO 25012G20KT 10SM CLR 18/08 A3000 RMK AO2 SLP162 T01780078
KAPN 171554Z AUTO 25010G19KT 10SM CLR 16/08 A2999 RMK AO2 SLP160 T01610078
KAPN 171454Z AUTO 25014G22KT 10SM CLR 15/07 A3000 RMK AO2 SLP164 T01500072 51003
KAPN 171354Z AUTO 24010G19KT 10SM CLR 13/06 A3000 RMK AO2 SLP163 T01330061
KAPN 171254Z AUTO 23008KT 10SM CLR 11/06 A3000 RMK AO2 SLP162 T01110056
KAPN 171240Z AUTO 22009KT 1 1/4SM HZ CLR 10/06 A3000 RMK AO2 VIS 1/4V5 T01000056
KAPN 171154Z AUTO 20006KT 10SM CLR 08/04 A2999 RMK AO2 SLP161 T00780044 10083 20056 58023
KAPN 171054Z AUTO 21008KT 10SM CLR 08/04 A3002 RMK AO2 SLP169 T00780044
KAPN 170954Z AUTO 20010KT 10SM BKN110 08/04 A3004 RMK AO2 SLP176 T00780044
KAPN 170854Z AUTO 21008KT 10SM CLR 08/05 A3006 RMK AO2 SLP184 T00780050 56019
KAPN 170754Z AUTO 20006KT 10SM CLR 07/04 A3008 RMK AO2 SLP189 T00670044
KAPN 170654Z AUTO 20007KT 10SM FEW120 07/04 A3011 RMK AO2 SLP198 T00670039
KAPN 170554Z AUTO 20004KT 10SM CLR 06/03 A3012 RMK AO2 SLP204 T00560033 10094 20022 58011
KAPN 170454Z AUTO 20005KT 10SM CLR 04/03 A3014 RMK AO2 SLP211 T00390028 401280006
KAPN 170354Z AUTO 19004KT 10SM CLR 04/03 A3015 RMK AO2 SLP214 T00390033
KAPN 170254Z AUTO 00000KT 10SM CLR 07/04 A3015 RMK AO2 SLP216 T00670039 58000
KAPN 170154Z AUTO 20007KT 10SM CLR 08/04 A3015 RMK AO2 SLP217 T00780044
KAPN 170054Z AUTO 20005KT 10SM FEW050 08/04 A3016 RMK AO2 SLP218 T00830044
KAPN 162354Z AUTO 20007KT 10SM FEW055 09/04 A3015 RMK AO2 SLP217 60000 T00940044 10128 20094 58009
KAPN 162254Z AUTO 20004KT 10SM CLR 10/04 A3017 RMK AO2 SLP222 T01000044
KAPN 162154Z AUTO 22007KT 10SM FEW048 BKN075 13/04 A3017 RMK AO2 RAB07E17 SLP222 P0000 T01280039
KAPN 162054Z AUTO 21004KT 10SM BKN048 OVC070 12/03 A3018 RMK AO2 SLP226 T01170033 55012
KAPN 161954Z AUTO 20008KT 10SM CLR 12/02 A3018 RMK AO2 SLP225 T01220022
KAPN 161854Z AUTO 23006KT 10SM SCT050 12/02 A3020 RMK AO2 SLP232 T01170017
KAPN 161805Z AUTO 21011KT 10SM CLR 12/01 A3022 RMK AO2 T01170006
KAPN 161754Z AUTO 22007G15KT 2 1/2SM HZ CLR 12/01 A3022 RMK AO2 SLP237 T01170011 10117 20011 58017
KAPN 161654Z AUTO VRB05KT 10SM CLR 11/01 A3025 RMK AO2 SLP248 T01060011
KAPN 161554Z AUTO 20007KT 10SM CLR 09/01 A3027 RMK AO2 SLP255 T00890011
KAPN 161454Z AUTO 24006KT 10SM CLR 07/00 A3027 RMK AO2 SLP255 T00720000 50005
KAPN 161354Z AUTO 22005KT 10SM CLR 06/01 A3027 RMK AO2 SLP257 T00560011
KAPN 161254Z AUTO 22003KT 10SM CLR 02/02 A3027 RMK AO2 SLP256 T00220017
KAPN 161154Z AUTO 26003KT 10SM CLR 01/01 A3025 RMK AO2 SLP251 70008 T00110006 10033 20006 51018
KAPN 161054Z AUTO 25004KT 10SM CLR 01/01 A3024 RMK AO2 SLP246 T00110006
KAPN 160954Z AUTO 26003KT 10SM FEW120 02/01 A3022 RMK AO2 SLP239 T00170011
KAPN 160854Z AUTO 28003KT 10SM CLR 02/01 A3020 RMK AO2 SLP233 T00170011 51008
KAPN 160754Z AUTO 26004KT 10SM CLR 02/01 A3019 RMK AO2 SLP231 T00170011
KAPN 160654Z AUTO 30003KT 10SM CLR 02/01 A3019 RMK AO2 SLP229 T00220011